Time;durP1;ratioP1;P1;durP2;ratioP2;P2;SDS_P1;SDS_P2;PMS_P1;PMS_P2;Temp;Humidity;BMP_temperature;BMP_pressure;BME280_temperature;BME280_humidity;BME280_pressure;Samples;Min_cycle;Max_cycle;Signal;HPM_P1;HPM_P2
2023/04/10 00:01:37;;;;;;;15.77;8.77;;;;;;;-145.18;100.00;47486.75;6181667;23;20108;-68
2023/04/10 00:04:03;;;;;;;14.60;8.57;;;;;;;-145.18;100.00;47459.41;6182018;23;20021;-68
2023/04/10 00:06:30;;;;;;;15.37;8.63;;;;;;;-145.18;100.00;47439.84;6181871;23;20043;-68
2023/04/10 00:08:56;;;;;;;14.33;8.03;;;;;;;-145.18;100.00;47408.59;6182486;23;20239;-68
2023/04/10 00:11:22;;;;;;;15.03;8.27;;;;;;;-145.18;100.00;47295.28;6181824;23;20633;-68
2023/04/10 00:13:47;;;;;;;14.00;7.47;;;;;;;-145.18;100.00;47297.22;6155988;23;20005;-67
2023/04/10 00:16:12;;;;;;;16.33;8.37;;;;;;;-145.18;100.00;47248.41;6181689;23;20005;-68
2023/04/10 00:18:38;;;;;;;12.87;8.00;;;;;;;-145.18;100.00;47154.63;6182211;23;20013;-68
2023/04/10 00:21:03;;;;;;;14.33;7.80;;;;;;;-145.18;100.00;47082.34;6182155;23;20100;-68
2023/04/10 00:23:31;;;;;;;13.40;7.63;;;;;;;-145.18;100.00;47023.72;6181754;23;20013;-68
2023/04/10 00:25:57;;;;;;;13.47;8.00;;;;;;;-145.18;100.00;47029.59;6182185;23;20016;-68
2023/04/10 00:28:22;;;;;;;13.50;7.83;;;;;;;-145.18;100.00;46984.66;6181590;23;20227;-68
2023/04/10 00:30:47;;;;;;;13.23;7.90;;;;;;;-145.18;100.00;46947.53;6182335;23;20009;-67
2023/04/10 00:33:13;;;;;;;14.07;7.97;;;;;;;-145.18;100.00;46941.69;6181805;23;20000;-68
2023/04/10 00:35:38;;;;;;;12.43;7.90;;;;;;;-145.18;100.00;46926.06;6181899;23;20016;-68
2023/04/10 00:38:03;;;;;;;12.83;7.57;;;;;;;-145.18;100.00;46912.38;6181625;23;20098;-68
2023/04/10 00:40:29;;;;;;;11.97;7.30;;;;;;;-145.18;100.00;46908.47;6181372;23;20006;-68
2023/04/10 00:42:54;;;;;;;13.70;7.47;;;;;;;-145.18;100.00;46879.19;6181598;23;20001;-68
2023/04/10 00:45:20;;;;;;;12.60;7.50;;;;;;;-145.18;100.00;46883.09;6181792;23;20024;-68
2023/04/10 00:47:45;;;;;;;11.97;6.83;;;;;;;-145.18;100.00;46869.41;6181709;23;20088;-68
2023/04/10 00:50:11;;;;;;;12.60;7.47;;;;;;;-145.18;100.00;46861.59;6155261;23;20445;-68
2023/04/10 00:52:37;;;;;;;11.87;6.67;;;;;;;-145.18;100.00;46847.91;6181421;23;20016;-68
2023/04/10 00:55:03;;;;;;;13.80;7.47;;;;;;;-145.18;100.00;46849.88;6182013;23;20012;-68
2023/04/10 00:57:28;;;;;;;14.13;7.10;;;;;;;-145.18;100.00;46855.72;6181197;23;20450;-68
2023/04/10 00:59:54;;;;;;;11.30;7.33;;;;;;;-145.18;100.00;46842.06;6182034;23;20239;-68
2023/04/10 01:02:20;;;;;;;11.47;6.57;;;;;;;-145.18;100.00;46853.78;6181309;23;20224;-68
2023/04/10 01:04:46;;;;;;;12.93;7.00;;;;;;;-145.18;100.00;46842.06;6181462;23;20104;-68
2023/04/10 01:07:26;;;;;;;14.47;6.97;;;;;;;-145.18;100.00;46863.53;6181392;23;20009;-68
2023/04/10 01:10:03;;;;;;;12.97;7.27;;;;;;;-145.18;100.00;46834.25;6182100;23;20692;-68
2023/04/10 01:12:54;;;;;;;13.47;7.50;;;;;;;-145.18;100.00;46808.84;6181444;23;20306;-68
2023/04/10 01:15:24;;;;;;;11.80;6.70;;;;;;;-145.18;100.00;46803.00;6181264;23;20288;-68
2023/04/10 01:18:08;;;;;;;13.97;6.97;;;;;;;-145.18;100.00;46826.44;6181163;23;20247;-68
2023/04/10 01:20:36;;;;;;;13.33;7.10;;;;;;;-145.18;100.00;46844.00;6181952;23;20658;-68
2023/04/10 01:23:51;;;;;;;12.43;6.90;;;;;;;-145.18;100.00;46812.75;6181538;23;20231;-68
2023/04/10 01:26:31;;;;;;;10.77;6.63;;;;;;;-145.18;100.00;46830.34;6181445;23;20829;-68
2023/04/10 01:29:00;;;;;;;11.93;6.73;;;;;;;-145.18;100.00;46795.19;6181614;23;20306;-68
2023/04/10 01:32:00;;;;;;;11.77;6.50;;;;;;;-145.18;100.00;46793.22;6181549;23;20255;-68
2023/04/10 01:34:38;;;;;;;11.70;6.50;;;;;;;-145.18;100.00;46785.41;6174740;23;20293;-68
2023/04/10 01:37:07;;;;;;;10.43;6.50;;;;;;;-145.18;100.00;46799.09;6181252;23;20704;-68
2023/04/10 01:39:36;;;;;;;13.20;6.93;;;;;;;-145.18;100.00;46793.22;6181657;23;20226;-68
2023/04/10 01:42:05;;;;;;;9.80;6.10;;;;;;;-145.18;100.00;46801.03;6181383;23;20302;-68
2023/04/10 01:44:32;;;;;;;11.77;6.30;;;;;;;-145.18;100.00;46789.31;6181457;23;20223;-68
2023/04/10 01:47:00;;;;;;;11.07;5.97;;;;;;;-145.18;100.00;46789.31;6181204;23;20606;-68
2023/04/10 01:49:27;;;;;;;9.93;5.57;;;;;;;-145.18;100.00;46810.81;6181414;23;20231;-68
2023/04/10 01:51:57;;;;;;;10.10;5.77;;;;;;;-145.18;100.00;46806.91;6181036;23;20227;-68
2023/04/10 01:54:26;;;;;;;10.93;5.80;;;;;;;-145.18;100.00;46801.03;6181281;23;20617;-68
2023/04/10 01:56:51;;;;;;;9.40;5.77;;;;;;;-145.18;100.00;46795.19;6183008;23;20247;-68
2023/04/10 01:59:17;;;;;;;8.60;5.43;;;;;;;-145.18;100.00;46803.00;6183348;23;20235;-68
2023/04/10 02:01:43;;;;;;;8.90;5.67;;;;;;;-145.18;100.00;46810.81;6168236;23;20108;-86
2023/04/10 02:04:08;;;;;;;9.90;5.67;;;;;;;-145.18;100.00;46799.09;6125233;23;20261;-68
2023/04/10 02:06:50;;;;;;;11.03;5.60;;;;;;;-145.18;100.00;46826.44;6183093;23;20488;-69
2023/04/10 02:09:27;;;;;;;9.47;5.33;;;;;;;-145.18;100.00;46822.53;6156682;23;20004;-68
2023/04/10 02:12:04;;;;;;;9.80;5.57;;;;;;;-145.18;100.00;46842.06;6183277;23;20227;-68
2023/04/10 02:14:32;;;;;;;9.17;5.57;;;;;;;-145.18;100.00;46822.53;6182106;23;20254;-68
2023/04/10 02:16:58;;;;;;;9.43;6.00;;;;;;;-145.18;100.00;46847.91;6183158;23;20639;-68
2023/04/10 02:19:25;;;;;;;11.17;6.27;;;;;;;-145.18;100.00;46849.88;6183524;23;20710;-68
2023/04/10 02:21:52;;;;;;;9.70;5.70;;;;;;;-145.18;100.00;46840.09;6183467;23;20572;-68
2023/04/10 02:24:19;;;;;;;10.33;5.70;;;;;;;-145.18;100.00;46847.91;6183252;23;20255;-68
2023/04/10 02:26:48;;;;;;;11.63;5.53;;;;;;;-145.18;100.00;46857.69;6183961;23;20211;-68
2023/04/10 02:29:14;;;;;;;8.10;5.20;;;;;;;-145.18;100.00;46859.63;6183348;23;20219;-68
2023/04/10 02:31:43;;;;;;;8.00;4.83;;;;;;;-145.18;100.00;46847.91;6183883;23;20273;-68
2023/04/10 02:34:08;;;;;;;9.43;5.70;;;;;;;-145.18;100.00;46842.06;6182886;23;20084;-68
2023/04/10 02:36:36;;;;;;;8.87;5.97;;;;;;;-145.18;100.00;46879.19;6183396;23;20290;-68
2023/04/10 02:39:02;;;;;;;10.57;5.97;;;;;;;-145.18;100.00;46873.31;6182984;23;20088;-68
2023/04/10 02:41:28;;;;;;;9.27;5.67;;;;;;;-145.18;100.00;46885.03;6183463;23;20677;-68
2023/04/10 02:43:53;;;;;;;10.33;5.67;;;;;;;-145.18;100.00;46894.81;6182957;23;20262;-68
2023/04/10 02:46:19;;;;;;;8.03;5.50;;;;;;;-145.18;100.00;46883.09;6183191;23;20013;-68
2023/04/10 02:48:44;;;;;;;9.27;5.00;;;;;;;-145.18;100.00;46885.03;6182978;23;20012;-69
2023/04/10 02:51:09;;;;;;;10.10;6.10;;;;;;;-145.18;100.00;46875.28;6182828;23;20514;-68
2023/04/10 02:53:35;;;;;;;9.10;5.63;;;;;;;-145.18;100.00;46834.25;6182917;23;20020;-68
2023/04/10 02:56:01;;;;;;;10.90;5.50;;;;;;;-145.18;100.00;46838.16;6182994;23;20581;-68
2023/04/10 02:58:29;;;;;;;12.23;6.07;;;;;;;-145.18;100.00;46855.72;6183042;23;20431;-68
2023/04/10 03:00:55;;;;;;;10.03;5.40;;;;;;;-145.18;100.00;46838.16;6182754;23;20008;-68
2023/04/10 03:03:20;;;;;;;9.53;5.77;;;;;;;-145.18;100.00;46844.00;6163919;23;20248;-68
2023/04/10 03:05:48;;;;;;;9.27;5.73;;;;;;;-145.18;100.00;46865.50;6153175;23;20256;-68
2023/04/10 03:08:14;;;;;;;11.13;6.30;;;;;;;-145.18;100.00;46863.53;6152820;23;20498;-68
2023/04/10 03:10:42;;;;;;;8.27;5.60;;;;;;;-145.18;100.00;46845.97;6153282;23;20699;-68
2023/04/10 03:13:07;;;;;;;10.20;5.87;;;;;;;-145.18;100.00;46861.59;6152937;23;20673;-68
2023/04/10 03:15:32;;;;;;;10.70;6.03;;;;;;;-145.18;100.00;46857.69;6153434;23;20294;-68
2023/04/10 03:17:58;;;;;;;8.73;5.63;;;;;;;-145.18;100.00;46867.44;6152574;23;20020;-69
2023/04/10 03:20:23;;;;;;;10.73;6.47;;;;;;;-145.18;100.00;46855.72;6153270;23;20089;-68
2023/04/10 03:22:49;;;;;;;9.50;6.23;;;;;;;-145.18;100.00;46853.78;6152924;23;20320;-68
2023/04/10 03:25:15;;;;;;;12.00;6.27;;;;;;;-145.18;100.00;46867.44;6152867;23;20132;-68
2023/04/10 03:27:40;;;;;;;10.67;6.07;;;;;;;-145.18;100.00;46859.63;6152958;23;20822;-68
2023/04/10 03:30:07;;;;;;;10.17;5.70;;;;;;;-145.18;100.00;46875.28;6152951;23;20084;-68
2023/04/10 03:32:32;;;;;;;8.77;5.67;;;;;;;-145.18;100.00;46865.50;6152717;23;20029;-68
2023/04/10 03:34:58;;;;;;;10.13;5.50;;;;;;;-145.18;100.00;46855.72;6152857;23;20268;-68
2023/04/10 03:37:24;;;;;;;9.20;5.37;;;;;;;-145.18;100.00;46830.34;6153008;23;20013;-68
2023/04/10 03:39:49;;;;;;;11.07;5.70;;;;;;;-145.18;100.00;46822.53;6153094;23;20336;-68
2023/04/10 03:42:15;;;;;;;9.77;6.00;;;;;;;-145.18;100.00;46822.53;6126443;23;20669;-68
2023/04/10 03:44:40;;;;;;;11.37;6.30;;;;;;;-145.18;100.00;46824.47;6153106;23;20037;-68
2023/04/10 03:47:05;;;;;;;10.03;6.43;;;;;;;-145.18;100.00;46810.81;6153432;23;20013;-68
2023/04/10 03:49:31;;;;;;;11.07;6.27;;;;;;;-145.18;100.00;46814.72;6152568;23;20010;-68
2023/04/10 03:51:56;;;;;;;9.90;5.60;;;;;;;-145.18;100.00;46816.66;6152779;23;20443;-68
2023/04/10 03:54:21;;;;;;;9.33;6.00;;;;;;;-145.18;100.00;46803.00;6126615;23;20041;-68
2023/04/10 03:56:47;;;;;;;8.43;5.20;;;;;;;-145.18;100.00;46801.03;6152778;23;20334;-67
2023/04/10 03:59:12;;;;;;;11.33;6.33;;;;;;;-145.18;100.00;46816.66;6126141;23;20093;-68
2023/04/10 04:01:38;;;;;;;10.17;6.07;;;;;;;-145.18;100.00;46857.69;6152452;23;20025;-68
2023/04/10 04:04:04;;;;;;;12.10;6.27;;;;;;;-145.18;100.00;46824.47;6151742;23;20014;-68
2023/04/10 04:06:30;;;;;;;8.63;5.63;;;;;;;-145.18;100.00;46824.47;6149880;23;20469;-68
2023/04/10 04:08:55;;;;;;;8.97;5.87;;;;;;;-145.18;100.00;46840.09;6151743;23;20223;-68
2023/04/10 04:11:20;;;;;;;9.80;6.30;;;;;;;-145.18;100.00;46824.47;6152493;23;20481;-68
2023/04/10 04:13:47;;;;;;;8.97;6.23;;;;;;;-145.18;100.00;46824.47;6150953;23;20025;-68
2023/04/10 04:16:12;;;;;;;8.63;5.77;;;;;;;-145.18;100.00;46859.63;6150809;23;20251;-68
2023/04/10 04:18:38;;;;;;;10.20;5.77;;;;;;;-145.18;100.00;46820.56;6150618;23;20021;-68
2023/04/10 04:21:04;;;;;;;10.07;6.13;;;;;;;-145.18;100.00;46836.19;6150925;23;20013;-68
2023/04/10 04:23:29;;;;;;;10.60;6.50;;;;;;;-145.18;100.00;46842.06;6150638;23;20013;-68
2023/04/10 04:25:56;;;;;;;8.93;5.60;;;;;;;-145.18;100.00;46838.16;6151362;23;20016;-68
2023/04/10 04:28:22;;;;;;;7.80;4.93;;;;;;;-145.18;100.00;46836.19;6151252;23;20020;-68
2023/04/10 04:30:47;;;;;;;8.20;4.77;;;;;;;-145.18;100.00;46820.56;6151522;23;20677;-68
2023/04/10 04:33:13;;;;;;;8.57;5.50;;;;;;;-145.18;100.00;46826.44;6150919;23;20111;-68
2023/04/10 04:35:38;;;;;;;9.17;5.50;;;;;;;-145.18;100.00;46822.53;6149847;23;20009;-68
2023/04/10 04:38:03;;;;;;;9.07;5.73;;;;;;;-145.18;100.00;46812.75;6151510;23;20041;-69
2023/04/10 04:40:29;;;;;;;9.27;5.40;;;;;;;-145.18;100.00;46789.31;6152319;23;20006;-68
2023/04/10 04:42:54;;;;;;;8.83;5.63;;;;;;;-145.18;100.00;46808.84;6151945;23;20045;-68
2023/04/10 04:45:20;;;;;;;11.50;5.90;;;;;;;-145.18;100.00;46803.00;6126116;23;20439;-68
2023/04/10 04:47:46;;;;;;;9.03;5.83;;;;;;;-145.18;100.00;46789.31;6152359;23;20014;-68
2023/04/10 04:50:11;;;;;;;10.57;6.13;;;;;;;-145.18;100.00;46791.28;6151721;23;20287;-68
2023/04/10 04:52:37;;;;;;;9.17;6.13;;;;;;;-145.18;100.00;46804.94;6152371;23;20016;-68
2023/04/10 04:55:02;;;;;;;10.33;5.70;;;;;;;-145.18;100.00;46787.38;6151971;23;20072;-68
2023/04/10 04:57:27;;;;;;;10.40;6.43;;;;;;;-145.18;100.00;46765.88;6151081;23;20013;-68
2023/04/10 04:59:53;;;;;;;11.43;6.60;;;;;;;-145.18;100.00;46760.00;6151150;23;20010;-68
2023/04/10 05:02:21;;;;;;;11.10;6.57;;;;;;;-145.18;100.00;46746.34;6125033;23;20244;-68
2023/04/10 05:04:46;;;;;;;10.17;6.07;;;;;;;-145.18;100.00;46740.47;6152589;23;20052;-68
2023/04/10 05:07:12;;;;;;;11.80;7.10;;;;;;;-145.18;100.00;46742.44;6152183;23;20275;-68
2023/04/10 05:09:37;;;;;;;10.20;6.60;;;;;;;-145.18;100.00;46742.44;6152258;23;20507;-68
2023/04/10 05:12:03;;;;;;;12.17;6.93;;;;;;;-145.18;100.00;46736.56;6152207;23;20017;-68
2023/04/10 05:14:28;;;;;;;10.50;6.27;;;;;;;-145.18;100.00;46728.75;6152210;23;20045;-68
2023/04/10 05:16:53;;;;;;;11.43;6.63;;;;;;;-145.18;100.00;46724.84;6151466;23;20009;-68
2023/04/10 05:19:19;;;;;;;11.60;7.13;;;;;;;-145.18;100.00;46715.09;6151632;23;20479;-68
2023/04/10 05:21:44;;;;;;;10.33;6.63;;;;;;;-145.18;100.00;46709.22;6152030;23;20024;-68
2023/04/10 05:24:10;;;;;;;10.57;6.73;;;;;;;-145.18;100.00;46705.31;6152135;23;20041;-69
2023/04/10 05:26:35;;;;;;;9.63;6.43;;;;;;;-145.18;100.00;46707.28;6152233;23;20335;-68
2023/04/10 05:29:01;;;;;;;10.77;5.97;;;;;;;-145.18;100.00;46711.19;6152334;23;20013;-68
2023/04/10 05:31:26;;;;;;;10.83;6.50;;;;;;;-145.18;100.00;46689.69;6154414;23;20001;-68
2023/04/10 05:33:51;;;;;;;9.07;6.20;;;;;;;-145.18;100.00;46720.94;6153805;23;20013;-68
2023/04/10 05:36:17;;;;;;;10.17;6.07;;;;;;;-145.18;100.00;46709.22;6153723;23;20022;-68
2023/04/10 05:38:42;;;;;;;10.87;6.13;;;;;;;-145.18;100.00;46715.09;6153666;23;20013;-68
2023/04/10 05:41:08;;;;;;;9.03;5.93;;;;;;;-145.18;100.00;46709.22;6154032;23;20100;-68
2023/04/10 05:43:33;;;;;;;10.10;6.50;;;;;;;-145.18;100.00;46715.09;6128193;23;20041;-68
2023/04/10 05:45:58;;;;;;;10.10;6.63;;;;;;;-145.18;100.00;46691.66;6153755;23;20033;-68
2023/04/10 05:48:25;;;;;;;11.00;6.90;;;;;;;-145.18;100.00;46720.94;6153879;23;20060;-68
2023/04/10 05:50:51;;;;;;;10.53;6.17;;;;;;;-145.18;100.00;46711.19;6153944;23;20044;-68
2023/04/10 05:53:18;;;;;;;10.50;6.47;;;;;;;-145.18;100.00;46742.44;6153664;23;20419;-68
2023/04/10 05:55:43;;;;;;;10.50;6.13;;;;;;;-145.18;100.00;46736.56;6153742;23;20242;-68
2023/04/10 05:58:09;;;;;;;14.17;7.23;;;;;;;-145.18;100.00;46773.69;6153467;23;20287;-68
2023/04/10 06:00:35;;;;;;;13.37;6.77;;;;;;;-145.18;100.00;46771.75;6154058;23;20544;-68
2023/04/10 06:03:01;;;;;;;10.63;6.30;;;;;;;-145.18;100.00;46775.66;6152951;23;20075;-68
2023/04/10 06:05:27;;;;;;;11.27;6.83;;;;;;;-145.18;100.00;46781.50;6153598;23;20251;-68
2023/04/10 06:07:52;;;;;;;12.50;6.93;;;;;;;-145.18;100.00;46775.66;6153056;23;20228;-68
2023/04/10 06:10:17;;;;;;;10.63;7.10;;;;;;;-145.18;100.00;46742.44;6152469;23;20005;-68
2023/04/10 06:12:43;;;;;;;9.53;6.50;;;;;;;-145.18;100.00;46775.66;6152956;23;20060;-68
2023/04/10 06:15:09;;;;;;;10.60;6.07;;;;;;;-145.18;100.00;46777.59;6152028;23;20014;-68
2023/04/10 06:17:34;;;;;;;10.77;6.60;;;;;;;-145.18;100.00;46775.66;6144888;23;20020;-68
2023/04/10 06:20:03;;;;;;;11.07;6.20;;;;;;;-145.18;100.00;46777.59;6153177;23;20230;-68
2023/04/10 06:22:29;;;;;;;8.90;6.03;;;;;;;-145.18;100.00;46765.88;6153918;23;20010;-68
2023/04/10 06:24:55;;;;;;;9.90;6.37;;;;;;;-145.18;100.00;46769.78;6153314;23;20239;-68
2023/04/10 06:27:20;;;;;;;12.67;6.80;;;;;;;-145.18;100.00;46775.66;6152280;23;20243;-68
2023/04/10 06:29:46;;;;;;;11.53;6.60;;;;;;;-145.18;100.00;46789.31;6153152;23;20006;-68
2023/04/10 06:32:11;;;;;;;10.87;6.10;;;;;;;-145.18;100.00;46779.56;6146713;23;20005;-68
2023/04/10 06:34:36;;;;;;;11.80;6.80;;;;;;;-145.18;100.00;46773.69;6153501;23;20005;-68
2023/04/10 06:37:02;;;;;;;12.97;6.97;;;;;;;-145.18;100.00;46804.94;6153201;23;20009;-68
2023/04/10 06:39:27;;;;;;;10.63;7.70;;;;;;;-145.18;100.00;46781.50;6127484;23;20016;-68
2023/04/10 06:41:52;;;;;;;12.50;7.10;;;;;;;-145.18;100.00;46797.13;6152711;23;20505;-68
2023/04/10 06:44:18;;;;;;;12.73;7.50;;;;;;;-145.18;100.00;46808.84;6153100;23;20009;-68
2023/04/10 06:46:43;;;;;;;11.50;6.87;;;;;;;-145.18;100.00;46783.47;6153537;23;20045;-68
2023/04/10 06:49:08;;;;;;;11.67;6.60;;;;;;;-145.18;100.00;46804.94;6153018;23;20033;-68
2023/04/10 06:51:34;;;;;;;11.40;6.77;;;;;;;-145.18;100.00;46820.56;6153310;23;20006;-68
2023/04/10 06:53:59;;;;;;;11.17;7.03;;;;;;;-145.18;100.00;46783.47;6152975;23;20436;-68
2023/04/10 06:56:24;;;;;;;11.73;6.73;;;;;;;-145.18;100.00;46808.84;6153140;23;20020;-68
2023/04/10 06:58:50;;;;;;;11.73;7.00;;;;;;;-145.18;100.00;46812.75;6153185;23;20021;-68
2023/04/10 07:01:16;;;;;;;11.93;6.67;;;;;;;-145.18;100.00;46824.47;6153032;23;20009;-68
2023/04/10 07:03:41;;;;;;;11.83;6.93;;;;;;;-145.18;100.00;46830.34;6138202;23;20458;-68
2023/04/10 07:06:09;;;;;;;10.30;5.97;;;;;;;-145.18;100.00;46875.28;6151186;23;20318;-68
2023/04/10 07:08:35;;;;;;;10.47;6.97;;;;;;;-145.18;100.00;46857.69;6153448;23;20017;-68
2023/04/10 07:11:00;;;;;;;12.93;6.83;;;;;;;-145.18;100.00;46879.19;6153133;23;20240;-68
2023/04/10 07:13:25;;;;;;;11.93;6.77;;;;;;;-145.18;100.00;46959.25;6152388;23;20016;-68
2023/04/10 07:15:51;;;;;;;10.57;6.30;;;;;;;-145.18;100.00;47092.09;6153060;23;20089;-68
2023/04/10 07:18:16;;;;;;;10.20;6.10;;;;;;;-145.18;100.00;47123.38;6150681;23;20024;-68
2023/04/10 07:20:41;;;;;;;11.43;6.10;;;;;;;-145.18;100.00;47443.75;6176513;23;20005;-68
2023/04/10 07:23:07;;;;;;;8.47;5.63;;;;;;;-145.18;100.00;47516.06;6152309;23;20033;-68
2023/04/10 07:25:33;;;;;;;8.47;6.13;;;;;;;-145.18;100.00;47527.78;6153029;23;20076;-68
2023/04/10 07:27:58;;;;;;;10.33;6.47;;;;;;;-145.18;100.00;47506.28;6146238;23;20014;-68
2023/04/10 07:30:23;;;;;;;9.83;5.90;;;;;;;-145.18;100.00;47500.41;6176258;23;20012;-68
2023/04/10 07:32:49;;;;;;;11.07;6.23;;;;;;;-145.18;100.00;47480.88;6152685;23;20427;-68
2023/04/10 07:35:14;;;;;;;10.53;6.40;;;;;;;-145.18;100.00;47465.25;6152546;23;20130;-68
2023/04/10 07:37:42;;;;;;;10.83;5.67;;;;;;;-145.18;100.00;47449.63;6152775;23;20021;-69
2023/04/10 07:40:08;;;;;;;10.00;6.03;;;;;;;-145.18;100.00;47441.81;6151567;23;20013;-68
2023/04/10 07:42:34;;;;;;;7.73;5.47;;;;;;;-145.18;100.00;47439.84;6152543;23;20231;-68
2023/04/10 07:44:59;;;;;;;10.27;6.43;;;;;;;-145.18;100.00;47453.53;6152306;23;20249;-69
2023/04/10 07:47:24;;;;;;;9.03;5.93;;;;;;;-145.18;100.00;47432.03;6152593;23;20013;-68
2023/04/10 07:49:50;;;;;;;10.50;6.40;;;;;;;-145.18;100.00;47428.13;6152342;23;20013;-68
2023/04/10 07:52:15;;;;;;;11.57;5.90;;;;;;;-145.18;100.00;47459.41;6151925;23;20009;-68
2023/04/10 07:54:41;;;;;;;9.97;6.17;;;;;;;-145.18;100.00;47437.91;6152657;23;20017;-68
2023/04/10 07:57:06;;;;;;;10.67;6.40;;;;;;;-145.18;100.00;47465.25;6152223;23;20044;-69
2023/04/10 07:59:31;;;;;;;14.83;6.37;;;;;;;-145.18;100.00;47439.84;6152046;23;20016;-68
2023/04/10 08:01:57;;;;;;;10.40;6.27;;;;;;;-145.18;100.00;47447.66;6150458;23;20512;-68
2023/04/10 08:04:22;;;;;;;9.70;6.43;;;;;;;-145.18;100.00;47428.13;6151896;23;20021;-68
2023/04/10 08:06:48;;;;;;;10.37;6.47;;;;;;;-145.18;100.00;47434.00;6150976;23;20500;-68
2023/04/10 08:09:14;;;;;;;11.07;6.70;;;;;;;-145.18;100.00;47424.22;6150969;23;20032;-68
2023/04/10 08:11:39;;;;;;;9.43;5.70;;;;;;;-145.18;100.00;47418.38;6152212;23;20696;-70
2023/04/10 08:14:05;;;;;;;9.33;5.83;;;;;;;-145.18;100.00;47410.56;6152154;23;20028;-68
2023/04/10 08:16:34;;;;;;;10.80;6.70;;;;;;;-145.18;100.00;47412.50;6152414;23;20044;-68
2023/04/10 08:19:00;;;;;;;10.07;6.27;;;;;;;-145.18;100.00;47416.41;6152012;23;20454;-69
2023/04/10 08:21:28;;;;;;;12.60;6.53;;;;;;;-145.18;100.00;47408.59;6152386;23;20298;-69
2023/04/10 08:23:55;;;;;;;9.97;6.13;;;;;;;-145.18;100.00;47414.47;6125866;23;20017;-68
2023/04/10 08:26:20;;;;;;;8.47;5.60;;;;;;;-145.18;100.00;47426.19;6152396;23;20016;-68
2023/04/10 08:28:49;;;;;;;11.33;6.20;;;;;;;-145.18;100.00;47424.22;6151876;23;20010;-67
2023/04/10 08:31:15;;;;;;;10.17;5.70;;;;;;;-145.18;100.00;47410.56;6152333;23;20012;-68
2023/04/10 08:33:41;;;;;;;8.73;5.93;;;;;;;-145.18;100.00;47416.41;6152097;23;20693;-68
2023/04/10 08:36:08;;;;;;;11.03;6.80;;;;;;;-145.18;100.00;47418.38;6152298;23;20340;-67
2023/04/10 08:38:34;;;;;;;8.67;6.30;;;;;;;-145.18;100.00;47398.81;6151968;23;20009;-68
2023/04/10 08:40:59;;;;;;;9.77;6.07;;;;;;;-145.18;100.00;47406.63;6152239;23;20012;-68
2023/04/10 08:43:25;;;;;;;10.10;6.70;;;;;;;-145.18;100.00;47398.81;6151887;23;20013;-68
2023/04/10 08:45:51;;;;;;;10.03;6.10;;;;;;;-145.18;100.00;47402.72;6151871;23;20024;-67
2023/04/10 08:48:21;;;;;;;10.73;6.53;;;;;;;-145.18;100.00;47406.63;6150190;23;20005;-68
2023/04/10 08:50:48;;;;;;;8.87;5.73;;;;;;;-145.18;100.00;47398.81;6152265;23;20016;-68
2023/04/10 08:53:15;;;;;;;9.60;6.23;;;;;;;-145.18;100.00;47402.72;6150422;23;20033;-68
2023/04/10 08:55:42;;;;;;;11.17;6.43;;;;;;;-145.18;100.00;47398.81;6151581;23;20486;-68
2023/04/10 08:58:09;;;;;;;9.77;6.33;;;;;;;-145.18;100.00;47389.06;6151670;23;20045;-68
2023/04/10 09:00:37;;;;;;;9.37;6.03;;;;;;;-145.18;100.00;47391.00;6152418;23;20006;-67
2023/04/10 09:03:07;;;;;;;9.13;6.20;;;;;;;-145.18;100.00;47381.25;6152060;23;20014;-68
2023/04/10 09:05:34;;;;;;;9.83;6.03;;;;;;;-145.18;100.00;47398.81;6155453;23;20040;-68
2023/04/10 09:07:59;;;;;;;8.87;5.70;;;;;;;-145.18;100.00;47387.09;6155297;23;20005;-67
2023/04/10 09:10:25;;;;;;;10.70;7.00;;;;;;;-145.18;100.00;47389.06;6155449;23;20012;-68
2023/04/10 09:12:51;;;;;;;10.97;6.60;;;;;;;-145.18;100.00;47367.56;6155759;23;20021;-68
2023/04/10 09:15:16;;;;;;;9.47;6.73;;;;;;;-145.18;100.00;47381.25;6154848;23;20321;-68
2023/04/10 09:18:14;;;;;;;11.20;7.13;;;;;;;-145.18;100.00;47383.19;6154725;23;20005;-68
2023/04/10 09:20:39;;;;;;;9.80;6.47;;;;;;;-145.18;100.00;47379.28;6074494;23;20080;-68
2023/04/10 09:23:20;;;;;;;10.13;6.50;;;;;;;-145.18;100.00;47389.06;6155298;23;20089;-68
2023/04/10 09:25:46;;;;;;;10.40;6.30;;;;;;;-145.18;100.00;47379.28;6155359;23;20008;-68
2023/04/10 09:28:11;;;;;;;10.60;6.80;;;;;;;-145.18;100.00;47392.97;6154870;23;20017;-68
2023/04/10 09:30:39;;;;;;;10.33;6.90;;;;;;;-145.18;100.00;47367.56;6155324;23;20051;-68
2023/04/10 09:33:29;;;;;;;11.27;6.80;;;;;;;-145.18;100.00;47346.06;6154990;23;20038;-68
2023/04/10 09:35:57;;;;;;;10.40;7.20;;;;;;;-145.18;100.00;47349.97;6153639;23;20013;-68
2023/04/10 09:38:22;;;;;;;12.27;6.77;;;;;;;-145.18;100.00;47344.13;6154829;23;20012;-68
2023/04/10 09:40:48;;;;;;;9.47;6.00;;;;;;;-145.18;100.00;47336.31;6155559;23;20001;-68
2023/04/10 09:43:24;;;;;;;10.40;6.80;;;;;;;-145.18;100.00;47344.13;6154972;23;20037;-68
2023/04/10 09:45:56;;;;;;;9.53;5.90;;;;;;;-145.18;100.00;47322.63;6155183;23;20518;-68
2023/04/10 09:48:22;;;;;;;9.40;6.13;;;;;;;-145.18;100.00;47348.03;6128841;23;20370;-68
2023/04/10 09:50:48;;;;;;;9.30;5.93;;;;;;;-145.18;100.00;47344.13;6155347;23;20036;-68
2023/04/10 09:53:18;;;;;;;10.73;6.77;;;;;;;-145.18;100.00;47336.31;6155005;23;20559;-68
2023/04/10 09:55:43;;;;;;;9.43;6.50;;;;;;;-145.18;100.00;47328.50;6155197;23;20047;-68
2023/04/10 09:58:09;;;;;;;10.60;6.23;;;;;;;-145.18;100.00;47332.41;6154912;23;20100;-67
2023/04/10 10:00:39;;;;;;;8.80;5.80;;;;;;;-145.18;100.00;47305.06;6154918;23;20009;-68
2023/04/10 10:03:07;;;;;;;8.60;6.03;;;;;;;-145.18;100.00;47314.81;6154539;23;20068;-68
2023/04/10 10:05:36;;;;;;;8.73;5.70;;;;;;;-145.18;100.00;47318.72;6154377;23;20002;-68
2023/04/10 10:08:03;;;;;;;7.80;5.50;;;;;;;-145.18;100.00;47307.00;6154362;23;20136;-68
2023/04/10 10:10:29;;;;;;;9.97;6.20;;;;;;;-145.18;100.00;47305.06;6127635;23;20672;-68
2023/04/10 10:12:59;;;;;;;8.87;5.83;;;;;;;-145.18;100.00;47295.28;6153822;23;20005;-68
2023/04/10 10:15:37;;;;;;;9.63;5.57;;;;;;;-145.18;100.00;47303.09;6152263;23;20005;-68
2023/04/10 10:18:23;;;;;;;8.30;5.27;;;;;;;-145.18;100.00;47320.69;6126069;23;20338;-67
2023/04/10 10:20:49;;;;;;;7.65;5.32;;;;;;;-145.18;100.00;47312.88;6152378;23;20001;-68
2023/04/10 10:23:14;;;;;;;8.33;5.83;;;;;;;-145.18;100.00;47318.72;6152507;23;20037;-68
2023/04/10 10:25:41;;;;;;;7.80;5.37;;;;;;;-145.18;100.00;47289.41;6152663;23;20017;-69
2023/04/10 10:28:11;;;;;;;8.43;5.63;;;;;;;-145.18;100.00;47314.81;6153484;23;20403;-68
2023/04/10 10:30:37;;;;;;;8.87;5.67;;;;;;;-145.18;100.00;47295.28;6153342;23;20005;-68
2023/04/10 10:33:06;;;;;;;7.87;4.87;;;;;;;-145.18;100.00;47291.38;6153151;23;20093;-67
2023/04/10 10:35:33;;;;;;;6.97;5.33;;;;;;;-145.18;100.00;47287.47;6152888;23;20009;-68
2023/04/10 10:38:00;;;;;;;7.17;5.57;;;;;;;-145.18;100.00;47277.69;6152436;23;20179;-68
2023/04/10 10:40:34;;;;;;;6.77;5.07;;;;;;;-145.18;100.00;47275.75;6152741;23;20419;-68
2023/04/10 10:43:00;;;;;;;8.50;5.30;;;;;;;-145.18;100.00;47265.97;6153235;23;20001;-68
2023/04/10 10:45:32;;;;;;;8.70;5.17;;;;;;;-145.18;100.00;47273.78;6152231;23;20063;-68
2023/04/10 10:47:58;;;;;;;7.57;5.37;;;;;;;-145.18;100.00;47275.75;6153082;23;20218;-68
2023/04/10 10:50:23;;;;;;;7.53;5.00;;;;;;;-145.18;100.00;47291.38;6152794;23;20081;-68
2023/04/10 10:52:51;;;;;;;7.00;4.90;;;;;;;-145.18;100.00;47275.75;6152604;23;20012;-67
2023/04/10 10:55:30;;;;;;;8.00;5.70;;;;;;;-145.18;100.00;47260.13;6152630;23;20009;-68
2023/04/10 10:57:59;;;;;;;7.27;5.13;;;;;;;-145.18;100.00;47291.38;6152876;23;20661;-68
2023/04/10 11:00:26;;;;;;;8.17;5.83;;;;;;;-145.18;100.00;47277.69;6152481;23;20025;-68
2023/04/10 11:03:07;;;;;;;8.97;5.23;;;;;;;-145.18;100.00;47267.94;6152621;23;20028;-68
2023/04/10 11:05:51;;;;;;;8.60;5.10;;;;;;;-145.18;100.00;47250.34;6153027;23;20010;-68